Partridge, Illinois
Current Conditions -  °F | °C
As of 8:15 PM on Friday 28 Nov 2014 (Local Time) from KC75 Reporting Station
Clear Clear  
Wind Chill: 29°   Ceiling: Unl
Heat Index: 36°   Visibility: 10mi
Dew Point: 30°   Wind: 9mph
Humidity: 80%   Direction: 170°S
Pressure: 29.89"   Gusts: 17mph
Location:  40.7942°N, 89.4075°W
Report Text: KC75 290215Z AUTO 17008G15KT 10SM CLR 02/M01 A2989 RMK AO2 T00211010
Loading
Personal Weather Stations






























Interactive Weather Map New forecast layout! Learn more

10-Day Weather Forecast

Advertisements
Track Severe Weather on mobile